ADDS METAR Data INFO
IDs: Format: Raw Decoded Include TAF

Data at: 1616 UTC 18 Jul 2018

FNLU 181600Z 24010KT 9999 FEW020 23/19 Q1013 NOSIG

TAF FNLU 181200Z 1812/1918 30006KT 8000 SCT020
  TEMPO 1814/1818 26008KT CAVOK
  TEMPO 1904/1908 VRB03KT 3000 BR SCT014 OVC020
  BECMG 1910/1912 7000 FEW018 BKN023


FNCA 181600Z 20008KT 9999 FEW020 25/18 Q1014

TAF FNCA 181045Z 1812/1824 26008KT 9999 FEW013 BKN023
  BECMG 1820/1822 VRB03KT 8000 SCT016


FNBG 181600Z 31008KT 9999 SCT015 23/18 Q1015

TAF FNBG 181045Z 1812/1824 32008KT CAVOK
  TEMPO 1814/1818 9999 FEW015
  BECMG 1822/1824 19006KT 8000 SCT012


FNHU 181600Z 10005KT CAVOK 20/03 Q1024

TAF FNHU 181045Z 1812/1824 13008KT CAVOK
  BECMG 1822/1824 VRB03KT 8000 NSC


FNUE 181500Z 12006KT CAVOK 22/12 Q1020

TAF FNUE 181045Z 1812/1824 13008KT CAVOK
  BECMG 1820/1822 18005KT 8000 NSC


FNGI 181600Z 05010KT CAVOK 22/04 Q1022

TAF FNGI 181045Z 1812/1824 04010KT CAVOK
  BECMG 1820/1822 18010KT 9000 NSC


FNUB 181600Z 19008KT CAVOK 21/06 Q1026

TAF FNUB 181045Z 1812/1824 12010KT CAVOK
  BECMG 1820/1822 VRB03KT 8000 SCT016


FNMO 181300Z 25015KT CAVOK 26/16 Q1014

TAF FNMO 181045Z 1812/1824 29012KT 9999 SCT014
  TEMPO 1813/1818 32013KT
  BECMG 1820/1822 20008KT 9000 NSC


FNUG 181600Z 18006KT 9999 FEW025 29/14 Q1014
No TAF found for FNUG

FNMA 181600Z 18012KT 8000 BKN022 25/14 Q1016

TAF FNMA 181045Z 1812/1824 14008KT 8000 BKN020
  BECMG 1818/1820 VRB03KT 9000 SCT014


FNSA 181400Z 18004KT CAVOK 27/06 Q1015

TAF FNSA 181045Z 1812/1824 14008KT CAVOK
  BECMG 1822/1824 VRB03KT 8000 NSC


FNSO 181600Z 21006KT 7000 NSC ///// Q1014

TAF FNSO 181045Z 1812/1824 24008KT 9000 SCT014 BKN030
  BECMG 1822/1824 VRB03KT 8000 NSC


No METAR found for FNBC
No TAF found for FNBC

FNSU 181600Z 19006KT 9999 SCT013 22/// Q1017
No TAF found for FNSU

No METAR found for FNDU

TAF FNDU 181045Z 1812/1824 13008KT CAVOK
  BECMG 1822/1824 VRB03KT 8000 NSC


No METAR found for FNME

TAF FNME 181045Z 1812/1824 09010KT CAVOK
  BECMG 1820/1824 VRB03KT 9000 NSC


No METAR found for FNCT

TAF FNCT 181045Z 1812/1824 31008KT 9000 OVC016
  BECMG 1822/1824 18006KT 8000 NSC


FNKU 181400Z 07005KT CAVOK 22/12 Q1024

TAF FNKU 181045Z 1812/1824 12010KT CAVOK
  BECMG 1820/1822 VRB03KT 8000 NSC